Alderpoint, California
Current Conditions -  °F | °C
As of 8:35 PM on Thursday 18 Dec 2014 (Local Time) from KFOT Reporting Station
Overcast Overcast  
Wind Chill: 12°   Ceiling: 3600
Heat Index: 12°   Visibility: 10mi
Dew Point:   Wind: 20mph
Humidity: 82%   Direction: 130°SE
Pressure: 30.01"   Gusts: NA
Location:  40.18°N, 123.61°W
Report Text: KFOT 190435Z AUTO 13017KT 10SM BKN036 BKN042 OVC070 12/09 A3001 RMK AO1
Loading
Personal Weather Stations






























Interactive Weather Map New forecast layout! Learn more

10-Day Weather Forecast

Advertisements
Track Severe Weather on mobile